sensor_id;sensor_type;location;lat;lon;timestamp;temperature;humidity
23579;DHT22;11967;50.852;4.400;2022-07-29T00:00:35;23.20;94.20
23579;DHT22;11967;50.852;4.400;2022-07-29T00:03:02;23.10;94.20
23579;DHT22;11967;50.852;4.400;2022-07-29T00:05:28;23.10;94.20
23579;DHT22;11967;50.852;4.400;2022-07-29T00:07:53;23.10;94.20
23579;DHT22;11967;50.852;4.400;2022-07-29T00:10:19;23.00;94.30
23579;DHT22;11967;50.852;4.400;2022-07-29T00:12:45;23.10;94.30
23579;DHT22;11967;50.852;4.400;2022-07-29T00:15:10;23.10;94.30
23579;DHT22;11967;50.852;4.400;2022-07-29T00:17:36;23.00;94.30
23579;DHT22;11967;50.852;4.400;2022-07-29T00:20:02;23.00;94.30
23579;DHT22;11967;50.852;4.400;2022-07-29T00:22:28;23.00;94.40
23579;DHT22;11967;50.852;4.400;2022-07-29T00:24:54;22.90;94.50
23579;DHT22;11967;50.852;4.400;2022-07-29T00:27:19;22.90;94.60
23579;DHT22;11967;50.852;4.400;2022-07-29T00:29:45;22.90;94.50
23579;DHT22;11967;50.852;4.400;2022-07-29T00:32:11;22.90;94.70
23579;DHT22;11967;50.852;4.400;2022-07-29T00:34:37;22.80;94.70
23579;DHT22;11967;50.852;4.400;2022-07-29T00:37:21;22.80;94.80
23579;DHT22;11967;50.852;4.400;2022-07-29T00:39:47;22.80;94.90
23579;DHT22;11967;50.852;4.400;2022-07-29T00:42:12;22.80;94.80
23579;DHT22;11967;50.852;4.400;2022-07-29T00:44:42;22.80;94.90
23579;DHT22;11967;50.852;4.400;2022-07-29T00:47:09;22.80;94.90
23579;DHT22;11967;50.852;4.400;2022-07-29T00:49:36;22.80;94.90
23579;DHT22;11967;50.852;4.400;2022-07-29T00:52:05;22.80;95.00
23579;DHT22;11967;50.852;4.400;2022-07-29T00:54:30;22.70;95.10
23579;DHT22;11967;50.852;4.400;2022-07-29T00:56:58;22.70;95.10
23579;DHT22;11967;50.852;4.400;2022-07-29T00:59:25;22.70;95.10
23579;DHT22;11967;50.852;4.400;2022-07-29T01:01:51;22.70;95.20
23579;DHT22;11967;50.852;4.400;2022-07-29T01:04:16;22.60;95.30
23579;DHT22;11967;50.852;4.400;2022-07-29T01:06:42;22.60;95.40
23579;DHT22;11967;50.852;4.400;2022-07-29T01:09:08;22.60;95.50
23579;DHT22;11967;50.852;4.400;2022-07-29T01:11:35;22.50;95.60
23579;DHT22;11967;50.852;4.400;2022-07-29T01:14:01;22.50;95.60
23579;DHT22;11967;50.852;4.400;2022-07-29T01:16:32;22.50;95.70
23579;DHT22;11967;50.852;4.400;2022-07-29T01:19:07;22.50;95.80
23579;DHT22;11967;50.852;4.400;2022-07-29T01:27:04;22.40;95.90
23579;DHT22;11967;50.852;4.400;2022-07-29T01:29:55;22.40;96.00
23579;DHT22;11967;50.852;4.400;2022-07-29T01:32:26;22.40;96.00
23579;DHT22;11967;50.852;4.400;2022-07-29T01:35:05;22.40;96.10
23579;DHT22;11967;50.852;4.400;2022-07-29T01:37:51;22.40;96.20
23579;DHT22;11967;50.852;4.400;2022-07-29T01:40:21;22.40;96.20
23579;DHT22;11967;50.852;4.400;2022-07-29T01:42:54;22.40;96.20
23579;DHT22;11967;50.852;4.400;2022-07-29T01:45:28;22.30;96.30
23579;DHT22;11967;50.852;4.400;2022-07-29T01:48:11;22.40;96.30
23579;DHT22;11967;50.852;4.400;2022-07-29T01:50:53;22.40;96.30
23579;DHT22;11967;50.852;4.400;2022-07-29T01:53:33;22.40;96.30
23579;DHT22;11967;50.852;4.400;2022-07-29T01:56:00;22.30;96.40
23579;DHT22;11967;50.852;4.400;2022-07-29T01:58:30;22.30;96.50
23579;DHT22;11967;50.852;4.400;2022-07-29T02:00:58;22.20;96.60
23579;DHT22;11967;50.852;4.400;2022-07-29T02:03:25;22.20;96.70
23579;DHT22;11967;50.852;4.400;2022-07-29T02:05:53;22.20;96.70
23579;DHT22;11967;50.852;4.400;2022-07-29T02:08:21;22.30;96.70
23579;DHT22;11967;50.852;4.400;2022-07-29T02:10:48;22.30;96.70
23579;DHT22;11967;50.852;4.400;2022-07-29T02:13:15;22.30;96.70
23579;DHT22;11967;50.852;4.400;2022-07-29T02:15:43;22.20;96.80
23579;DHT22;11967;50.852;4.400;2022-07-29T02:18:17;22.30;96.80
23579;DHT22;11967;50.852;4.400;2022-07-29T02:20:49;22.30;96.80
23579;DHT22;11967;50.852;4.400;2022-07-29T02:23:19;22.30;96.80
23579;DHT22;11967;50.852;4.400;2022-07-29T02:25:48;22.30;96.80
23579;DHT22;11967;50.852;4.400;2022-07-29T02:28:16;22.30;96.80
23579;DHT22;11967;50.852;4.400;2022-07-29T02:30:43;22.20;96.80
23579;DHT22;11967;50.852;4.400;2022-07-29T02:33:13;22.30;96.90
23579;DHT22;11967;50.852;4.400;2022-07-29T02:35:40;22.20;96.90
23579;DHT22;11967;50.852;4.400;2022-07-29T02:38:08;22.20;97.00
23579;DHT22;11967;50.852;4.400;2022-07-29T02:40:55;22.20;97.00
23579;DHT22;11967;50.852;4.400;2022-07-29T02:43:23;22.20;96.90
23579;DHT22;11967;50.852;4.400;2022-07-29T02:45:53;22.20;97.00
23579;DHT22;11967;50.852;4.400;2022-07-29T02:48:25;22.10;97.10
23579;DHT22;11967;50.852;4.400;2022-07-29T02:51:01;22.10;97.20
23579;DHT22;11967;50.852;4.400;2022-07-29T02:53:33;22.00;97.30
23579;DHT22;11967;50.852;4.400;2022-07-29T02:56:04;22.10;97.30
23579;DHT22;11967;50.852;4.400;2022-07-29T02:58:40;22.10;97.30
23579;DHT22;11967;50.852;4.400;2022-07-29T03:01:15;22.10;97.70
23579;DHT22;11967;50.852;4.400;2022-07-29T03:03:44;22.10;97.30
23579;DHT22;11967;50.852;4.400;2022-07-29T03:06:15;22.20;97.30
23579;DHT22;11967;50.852;4.400;2022-07-29T03:08:42;22.20;97.30
23579;DHT22;11967;50.852;4.400;2022-07-29T03:11:09;22.10;97.50
23579;DHT22;11967;50.852;4.400;2022-07-29T03:13:36;22.10;97.30
23579;DHT22;11967;50.852;4.400;2022-07-29T03:16:02;22.10;97.30
23579;DHT22;11967;50.852;4.400;2022-07-29T03:18:30;22.10;97.40
23579;DHT22;11967;50.852;4.400;2022-07-29T03:20:56;22.00;97.40
23579;DHT22;11967;50.852;4.400;2022-07-29T03:23:23;22.00;97.40
23579;DHT22;11967;50.852;4.400;2022-07-29T03:25:50;22.00;97.50
23579;DHT22;11967;50.852;4.400;2022-07-29T03:28:16;22.00;97.60
23579;DHT22;11967;50.852;4.400;2022-07-29T03:30:42;22.00;97.50
23579;DHT22;11967;50.852;4.400;2022-07-29T03:33:07;22.00;97.60
23579;DHT22;11967;50.852;4.400;2022-07-29T03:35:34;21.90;97.70
23579;DHT22;11967;50.852;4.400;2022-07-29T03:38:00;21.90;97.80
23579;DHT22;11967;50.852;4.400;2022-07-29T03:40:48;21.90;97.80
23579;DHT22;11967;50.852;4.400;2022-07-29T03:43:16;21.90;97.80
23579;DHT22;11967;50.852;4.400;2022-07-29T03:45:46;21.90;97.80
23579;DHT22;11967;50.852;4.400;2022-07-29T03:48:15;21.80;98.00
23579;DHT22;11967;50.852;4.400;2022-07-29T03:50:41;21.80;98.10
23579;DHT22;11967;50.852;4.400;2022-07-29T03:53:08;21.80;98.20
23579;DHT22;11967;50.852;4.400;2022-07-29T03:55:42;21.80;98.20
23579;DHT22;11967;50.852;4.400;2022-07-29T03:58:10;21.90;98.10
23579;DHT22;11967;50.852;4.400;2022-07-29T04:00:36;21.90;98.10
23579;DHT22;11967;50.852;4.400;2022-07-29T04:03:04;21.80;98.30
23579;DHT22;11967;50.852;4.400;2022-07-29T04:05:29;21.80;98.30
23579;DHT22;11967;50.852;4.400;2022-07-29T04:07:55;21.80;98.40
23579;DHT22;11967;50.852;4.400;2022-07-29T04:10:21;21.80;98.40
23579;DHT22;11967;50.852;4.400;2022-07-29T04:12:48;21.80;98.50
23579;DHT22;11967;50.852;4.400;2022-07-29T04:15:14;21.80;98.60
23579;DHT22;11967;50.852;4.400;2022-07-29T04:17:40;21.60;98.70
23579;DHT22;11967;50.852;4.400;2022-07-29T04:20:06;21.60;98.80
23579;DHT22;11967;50.852;4.400;2022-07-29T04:22:32;21.70;99.00
23579;DHT22;11967;50.852;4.400;2022-07-29T04:24:57;21.70;99.00
23579;DHT22;11967;50.852;4.400;2022-07-29T04:27:23;21.60;99.00
23579;DHT22;11967;50.852;4.400;2022-07-29T04:29:49;21.60;99.00
23579;DHT22;11967;50.852;4.400;2022-07-29T04:32:15;21.60;99.20
23579;DHT22;11967;50.852;4.400;2022-07-29T04:34:40;21.60;99.30
23579;DHT22;11967;50.852;4.400;2022-07-29T04:37:06;21.60;99.50
23579;DHT22;11967;50.852;4.400;2022-07-29T04:39:33;21.50;99.70
23579;DHT22;11967;50.852;4.400;2022-07-29T04:41:58;21.60;99.80
23579;DHT22;11967;50.852;4.400;2022-07-29T04:44:24;21.50;99.90
23579;DHT22;11967;50.852;4.400;2022-07-29T04:46:49;21.50;99.90
23579;DHT22;11967;50.852;4.400;2022-07-29T04:49:15;21.50;99.90
23579;DHT22;11967;50.852;4.400;2022-07-29T04:51:41;21.50;99.90
23579;DHT22;11967;50.852;4.400;2022-07-29T04:54:09;21.50;99.90
23579;DHT22;11967;50.852;4.400;2022-07-29T04:56:37;21.50;99.90
23579;DHT22;11967;50.852;4.400;2022-07-29T04:59:14;21.60;99.90
23579;DHT22;11967;50.852;4.400;2022-07-29T05:01:39;21.70;99.90
23579;DHT22;11967;50.852;4.400;2022-07-29T05:04:05;21.70;99.90
23579;DHT22;11967;50.852;4.400;2022-07-29T05:06:33;21.80;99.90
23579;DHT22;11967;50.852;4.400;2022-07-29T05:08:59;21.70;99.90
23579;DHT22;11967;50.852;4.400;2022-07-29T05:11:28;21.70;99.90
23579;DHT22;11967;50.852;4.400;2022-07-29T05:13:56;21.60;99.90
23579;DHT22;11967;50.852;4.400;2022-07-29T05:16:22;21.60;99.90
23579;DHT22;11967;50.852;4.400;2022-07-29T05:18:48;21.60;99.90
23579;DHT22;11967;50.852;4.400;2022-07-29T05:21:13;21.50;99.90
23579;DHT22;11967;50.852;4.400;2022-07-29T05:23:39;21.40;99.90
23579;DHT22;11967;50.852;4.400;2022-07-29T05:26:05;21.40;99.90
23579;DHT22;11967;50.852;4.400;2022-07-29T05:28:33;21.40;99.90
23579;DHT22;11967;50.852;4.400;2022-07-29T05:31:00;21.40;99.90
23579;DHT22;11967;50.852;4.400;2022-07-29T05:33:26;21.40;99.90
23579;DHT22;11967;50.852;4.400;2022-07-29T05:35:53;21.40;99.90
23579;DHT22;11967;50.852;4.400;2022-07-29T05:38:20;21.40;99.90
23579;DHT22;11967;50.852;4.400;2022-07-29T05:40:46;21.50;99.90
23579;DHT22;11967;50.852;4.400;2022-07-29T05:43:11;21.50;99.90
23579;DHT22;11967;50.852;4.400;2022-07-29T05:45:38;21.50;99.90
23579;DHT22;11967;50.852;4.400;2022-07-29T05:48:06;21.50;99.90
23579;DHT22;11967;50.852;4.400;2022-07-29T05:50:32;21.50;99.90
23579;DHT22;11967;50.852;4.400;2022-07-29T05:53:15;21.40;99.90
23579;DHT22;11967;50.852;4.400;2022-07-29T05:55:41;21.40;99.90
23579;DHT22;11967;50.852;4.400;2022-07-29T05:58:08;21.50;99.90
23579;DHT22;11967;50.852;4.400;2022-07-29T06:00:35;21.40;99.90
23579;DHT22;11967;50.852;4.400;2022-07-29T06:03:03;21.50;99.90
23579;DHT22;11967;50.852;4.400;2022-07-29T06:05:29;21.60;99.90
23579;DHT22;11967;50.852;4.400;2022-07-29T06:07:54;21.70;99.90
23579;DHT22;11967;50.852;4.400;2022-07-29T06:10:20;21.70;99.90
23579;DHT22;11967;50.852;4.400;2022-07-29T06:12:46;21.70;99.90
23579;DHT22;11967;50.852;4.400;2022-07-29T06:15:12;21.70;99.90
23579;DHT22;11967;50.852;4.400;2022-07-29T06:17:37;21.70;99.90
23579;DHT22;11967;50.852;4.400;2022-07-29T06:20:04;21.70;99.90
23579;DHT22;11967;50.852;4.400;2022-07-29T06:22:30;21.70;99.90
23579;DHT22;11967;50.852;4.400;2022-07-29T06:24:56;21.70;99.90
23579;DHT22;11967;50.852;4.400;2022-07-29T06:27:21;21.80;99.90
23579;DHT22;11967;50.852;4.400;2022-07-29T06:29:47;21.80;99.90
23579;DHT22;11967;50.852;4.400;2022-07-29T06:32:13;21.80;99.90
23579;DHT22;11967;50.852;4.400;2022-07-29T06:34:38;21.80;99.90
23579;DHT22;11967;50.852;4.400;2022-07-29T06:37:08;21.80;99.90
23579;DHT22;11967;50.852;4.400;2022-07-29T06:39:36;21.90;99.90
23579;DHT22;11967;50.852;4.400;2022-07-29T06:42:05;21.90;99.90
23579;DHT22;11967;50.852;4.400;2022-07-29T06:44:31;21.90;99.90
23579;DHT22;11967;50.852;4.400;2022-07-29T06:46:59;21.90;99.90
23579;DHT22;11967;50.852;4.400;2022-07-29T06:49:25;21.90;99.90
23579;DHT22;11967;50.852;4.400;2022-07-29T06:51:53;22.00;99.90
23579;DHT22;11967;50.852;4.400;2022-07-29T06:54:18;22.10;99.90
23579;DHT22;11967;50.852;4.400;2022-07-29T06:56:45;22.40;99.90
23579;DHT22;11967;50.852;4.400;2022-07-29T06:59:11;22.50;99.90
23579;DHT22;11967;50.852;4.400;2022-07-29T07:01:39;22.60;99.90
23579;DHT22;11967;50.852;4.400;2022-07-29T07:04:06;22.70;99.90
23579;DHT22;11967;50.852;4.400;2022-07-29T07:06:35;22.70;99.90
23579;DHT22;11967;50.852;4.400;2022-07-29T07:09:01;22.60;99.90
23579;DHT22;11967;50.852;4.400;2022-07-29T07:11:27;22.60;99.90
23579;DHT22;11967;50.852;4.400;2022-07-29T07:13:53;22.60;99.90
23579;DHT22;11967;50.852;4.400;2022-07-29T07:16:18;22.60;99.90
23579;DHT22;11967;50.852;4.400;2022-07-29T07:18:44;22.50;99.90
23579;DHT22;11967;50.852;4.400;2022-07-29T07:21:11;22.60;99.90
23579;DHT22;11967;50.852;4.400;2022-07-29T07:23:37;22.60;99.90
23579;DHT22;11967;50.852;4.400;2022-07-29T07:26:03;22.60;99.90
23579;DHT22;11967;50.852;4.400;2022-07-29T07:28:31;22.60;99.90
23579;DHT22;11967;50.852;4.400;2022-07-29T07:30:56;22.60;99.90
23579;DHT22;11967;50.852;4.400;2022-07-29T07:33:22;22.60;99.90
23579;DHT22;11967;50.852;4.400;2022-07-29T07:35:48;22.60;99.90
23579;DHT22;11967;50.852;4.400;2022-07-29T07:38:13;22.60;99.90
23579;DHT22;11967;50.852;4.400;2022-07-29T07:40:39;22.50;99.90
23579;DHT22;11967;50.852;4.400;2022-07-29T07:43:05;22.60;99.90
23579;DHT22;11967;50.852;4.400;2022-07-29T07:45:31;22.50;99.90
23579;DHT22;11967;50.852;4.400;2022-07-29T07:47:58;22.60;99.90
23579;DHT22;11967;50.852;4.400;2022-07-29T07:50:24;22.50;99.90
23579;DHT22;11967;50.852;4.400;2022-07-29T07:52:51;22.50;99.90
23579;DHT22;11967;50.852;4.400;2022-07-29T07:55:18;22.50;99.90
23579;DHT22;11967;50.852;4.400;2022-07-29T07:57:45;22.50;99.90
23579;DHT22;11967;50.852;4.400;2022-07-29T08:00:12;22.50;99.90
23579;DHT22;11967;50.852;4.400;2022-07-29T08:02:39;22.50;99.90
23579;DHT22;11967;50.852;4.400;2022-07-29T08:05:07;22.50;99.90
23579;DHT22;11967;50.852;4.400;2022-07-29T08:07:33;22.40;99.90
23579;DHT22;11967;50.852;4.400;2022-07-29T08:10:01;22.50;99.90
23579;DHT22;11967;50.852;4.400;2022-07-29T08:12:27;22.60;99.90
23579;DHT22;11967;50.852;4.400;2022-07-29T08:14:56;22.60;99.90
23579;DHT22;11967;50.852;4.400;2022-07-29T08:17:21;22.60;99.90
23579;DHT22;11967;50.852;4.400;2022-07-29T08:19:47;22.60;99.90
23579;DHT22;11967;50.852;4.400;2022-07-29T08:22:16;22.70;99.90
23579;DHT22;11967;50.852;4.400;2022-07-29T08:24:41;23.00;99.90
23579;DHT22;11967;50.852;4.400;2022-07-29T08:27:18;23.20;99.90
23579;DHT22;11967;50.852;4.400;2022-07-29T08:29:45;23.40;99.90
23579;DHT22;11967;50.852;4.400;2022-07-29T08:32:10;23.50;99.90
23579;DHT22;11967;50.852;4.400;2022-07-29T08:34:39;23.70;99.90
23579;DHT22;11967;50.852;4.400;2022-07-29T08:37:04;23.70;99.90
23579;DHT22;11967;50.852;4.400;2022-07-29T08:39:30;23.70;99.90
23579;DHT22;11967;50.852;4.400;2022-07-29T08:41:56;23.90;99.90
23579;DHT22;11967;50.852;4.400;2022-07-29T08:44:24;24.00;99.90
23579;DHT22;11967;50.852;4.400;2022-07-29T08:46:50;24.00;99.90
23579;DHT22;11967;50.852;4.400;2022-07-29T08:49:17;24.00;99.90
23579;DHT22;11967;50.852;4.400;2022-07-29T08:51:44;24.10;99.90
23579;DHT22;11967;50.852;4.400;2022-07-29T08:54:11;24.20;99.90
23579;DHT22;11967;50.852;4.400;2022-07-29T08:56:41;24.30;99.90
23579;DHT22;11967;50.852;4.400;2022-07-29T08:59:10;24.30;99.90
23579;DHT22;11967;50.852;4.400;2022-07-29T09:01:37;24.40;99.90
23579;DHT22;11967;50.852;4.400;2022-07-29T09:04:09;24.40;99.90
23579;DHT22;11967;50.852;4.400;2022-07-29T09:06:43;24.30;99.90
23579;DHT22;11967;50.852;4.400;2022-07-29T09:09:09;24.40;99.90
23579;DHT22;11967;50.852;4.400;2022-07-29T09:11:41;24.40;99.90
23579;DHT22;11967;50.852;4.400;2022-07-29T09:14:08;24.40;99.90
23579;DHT22;11967;50.852;4.400;2022-07-29T09:16:51;24.40;99.90
23579;DHT22;11967;50.852;4.400;2022-07-29T09:19:23;24.40;99.90
23579;DHT22;11967;50.852;4.400;2022-07-29T09:21:49;24.50;99.90
23579;DHT22;11967;50.852;4.400;2022-07-29T09:24:24;24.60;99.90
23579;DHT22;11967;50.852;4.400;2022-07-29T09:26:51;24.60;99.70
23579;DHT22;11967;50.852;4.400;2022-07-29T09:29:18;24.70;99.60
23579;DHT22;11967;50.852;4.400;2022-07-29T09:31:47;24.80;99.30
23579;DHT22;11967;50.852;4.400;2022-07-29T09:34:26;24.80;99.00
23579;DHT22;11967;50.852;4.400;2022-07-29T09:36:56;24.80;98.90
23579;DHT22;11967;50.852;4.400;2022-07-29T09:39:37;24.80;98.70
23579;DHT22;11967;50.852;4.400;2022-07-29T09:42:11;24.80;98.50
23579;DHT22;11967;50.852;4.400;2022-07-29T09:44:48;24.90;98.40
23579;DHT22;11967;50.852;4.400;2022-07-29T09:47:16;25.00;98.10
23579;DHT22;11967;50.852;4.400;2022-07-29T09:49:57;24.90;98.20
23579;DHT22;11967;50.852;4.400;2022-07-29T09:52:25;24.90;98.30
23579;DHT22;11967;50.852;4.400;2022-07-29T09:55:08;25.00;98.30
23579;DHT22;11967;50.852;4.400;2022-07-29T09:57:36;25.00;98.20
23579;DHT22;11967;50.852;4.400;2022-07-29T10:00:13;25.00;98.20
23579;DHT22;11967;50.852;4.400;2022-07-29T10:02:42;25.10;97.90
23579;DHT22;11967;50.852;4.400;2022-07-29T10:05:23;25.10;97.80
23579;DHT22;11967;50.852;4.400;2022-07-29T10:07:54;25.20;97.60
23579;DHT22;11967;50.852;4.400;2022-07-29T10:10:29;25.20;97.60
23579;DHT22;11967;50.852;4.400;2022-07-29T10:13:10;25.30;97.40
23579;DHT22;11967;50.852;4.400;2022-07-29T10:15:38;25.30;97.40
23579;DHT22;11967;50.852;4.400;2022-07-29T10:18:11;25.40;97.30
23579;DHT22;11967;50.852;4.400;2022-07-29T10:20:38;25.40;97.20
23579;DHT22;11967;50.852;4.400;2022-07-29T10:23:05;25.40;96.90
23579;DHT22;11967;50.852;4.400;2022-07-29T10:25:31;25.50;96.80
23579;DHT22;11967;50.852;4.400;2022-07-29T10:27:58;25.50;96.70
23579;DHT22;11967;50.852;4.400;2022-07-29T10:30:25;25.50;97.00
23579;DHT22;11967;50.852;4.400;2022-07-29T10:42:02;25.70;96.30
23579;DHT22;11967;50.852;4.400;2022-07-29T10:44:32;25.80;96.40
23579;DHT22;11967;50.852;4.400;2022-07-29T10:47:01;25.80;96.00
23579;DHT22;11967;50.852;4.400;2022-07-29T10:49:35;25.90;96.10
23579;DHT22;11967;50.852;4.400;2022-07-29T10:52:08;25.90;96.10
23579;DHT22;11967;50.852;4.400;2022-07-29T10:54:42;25.90;95.60
23579;DHT22;11967;50.852;4.400;2022-07-29T10:57:16;26.00;95.10
23579;DHT22;11967;50.852;4.400;2022-07-29T11:05:09;26.00;94.90
23579;DHT22;11967;50.852;4.400;2022-07-29T11:10:43;26.10;94.30
23579;DHT22;11967;50.852;4.400;2022-07-29T11:16:09;26.10;94.30
23579;DHT22;11967;50.852;4.400;2022-07-29T11:21:40;26.20;93.50
23579;DHT22;11967;50.852;4.400;2022-07-29T11:24:36;26.20;93.60
23579;DHT22;11967;50.852;4.400;2022-07-29T11:27:15;26.20;93.20
23579;DHT22;11967;50.852;4.400;2022-07-29T11:29:55;26.10;92.30
23579;DHT22;11967;50.852;4.400;2022-07-29T11:32:23;26.00;93.30
23579;DHT22;11967;50.852;4.400;2022-07-29T11:35:21;26.20;93.50
23579;DHT22;11967;50.852;4.400;2022-07-29T11:38:26;26.20;93.40
23579;DHT22;11967;50.852;4.400;2022-07-29T11:43:48;26.20;93.50
23579;DHT22;11967;50.852;4.400;2022-07-29T11:46:49;26.30;93.00
23579;DHT22;11967;50.852;4.400;2022-07-29T11:49:23;26.30;92.50
23579;DHT22;11967;50.852;4.400;2022-07-29T11:51:57;26.40;92.40
23579;DHT22;11967;50.852;4.400;2022-07-29T11:54:44;26.40;92.10
23579;DHT22;11967;50.852;4.400;2022-07-29T11:57:10;26.50;91.70
23579;DHT22;11967;50.852;4.400;2022-07-29T11:59:40;26.40;92.10
23579;DHT22;11967;50.852;4.400;2022-07-29T12:02:07;26.40;92.00
23579;DHT22;11967;50.852;4.400;2022-07-29T12:05:14;26.40;91.70
23579;DHT22;11967;50.852;4.400;2022-07-29T12:10:47;26.30;91.80
23579;DHT22;11967;50.852;4.400;2022-07-29T12:13:38;26.40;92.30
23579;DHT22;11967;50.852;4.400;2022-07-29T12:16:14;26.40;91.70
23579;DHT22;11967;50.852;4.400;2022-07-29T12:18:40;26.40;91.70
23579;DHT22;11967;50.852;4.400;2022-07-29T12:21:06;26.40;91.70
23579;DHT22;11967;50.852;4.400;2022-07-29T12:24:07;26.50;91.80
23579;DHT22;11967;50.852;4.400;2022-07-29T12:30:08;26.60;90.50
23579;DHT22;11967;50.852;4.400;2022-07-29T12:32:36;26.60;89.80
23579;DHT22;11967;50.852;4.400;2022-07-29T12:35:14;26.60;90.10
23579;DHT22;11967;50.852;4.400;2022-07-29T12:37:44;26.60;89.10
23579;DHT22;11967;50.852;4.400;2022-07-29T12:40:44;26.60;89.50
23579;DHT22;11967;50.852;4.400;2022-07-29T12:43:16;26.80;88.90
23579;DHT22;11967;50.852;4.400;2022-07-29T12:46:10;26.80;88.50
23579;DHT22;11967;50.852;4.400;2022-07-29T12:48:44;26.80;88.70
23579;DHT22;11967;50.852;4.400;2022-07-29T12:51:11;26.90;89.30
23579;DHT22;11967;50.852;4.400;2022-07-29T12:57:08;27.20;88.30
23579;DHT22;11967;50.852;4.400;2022-07-29T13:00:05;27.20;86.80
23579;DHT22;11967;50.852;4.400;2022-07-29T13:02:40;27.00;86.00
23579;DHT22;11967;50.852;4.400;2022-07-29T13:05:09;26.90;87.40
23579;DHT22;11967;50.852;4.400;2022-07-29T13:07:50;26.90;87.20
23579;DHT22;11967;50.852;4.400;2022-07-29T13:10:18;26.80;86.50
23579;DHT22;11967;50.852;4.400;2022-07-29T13:15:53;26.70;88.00
23579;DHT22;11967;50.852;4.400;2022-07-29T13:21:48;26.60;87.80
23579;DHT22;11967;50.852;4.400;2022-07-29T13:24:22;26.50;87.20
23579;DHT22;11967;50.852;4.400;2022-07-29T13:27:06;26.50;87.70
23579;DHT22;11967;50.852;4.400;2022-07-29T13:29:42;26.50;87.80
23579;DHT22;11967;50.852;4.400;2022-07-29T13:32:19;26.50;88.10
23579;DHT22;11967;50.852;4.400;2022-07-29T13:34:52;26.50;88.50
23579;DHT22;11967;50.852;4.400;2022-07-29T13:37:28;26.50;88.10
23579;DHT22;11967;50.852;4.400;2022-07-29T13:39:56;26.50;88.00
23579;DHT22;11967;50.852;4.400;2022-07-29T13:42:27;26.50;86.90
23579;DHT22;11967;50.852;4.400;2022-07-29T13:44:53;26.60;85.60
23579;DHT22;11967;50.852;4.400;2022-07-29T13:47:21;26.50;85.10
23579;DHT22;11967;50.852;4.400;2022-07-29T13:49:48;26.50;85.60
23579;DHT22;11967;50.852;4.400;2022-07-29T13:52:15;26.60;84.80
23579;DHT22;11967;50.852;4.400;2022-07-29T13:54:41;26.60;85.20
23579;DHT22;11967;50.852;4.400;2022-07-29T13:57:09;26.70;86.30
23579;DHT22;11967;50.852;4.400;2022-07-29T13:59:42;26.60;86.00
23579;DHT22;11967;50.852;4.400;2022-07-29T14:02:09;26.60;86.00
23579;DHT22;11967;50.852;4.400;2022-07-29T14:04:35;26.60;85.90
23579;DHT22;11967;50.852;4.400;2022-07-29T14:07:04;26.70;85.80
23579;DHT22;11967;50.852;4.400;2022-07-29T14:09:49;26.80;85.20
23579;DHT22;11967;50.852;4.400;2022-07-29T14:12:15;26.90;84.70
23579;DHT22;11967;50.852;4.400;2022-07-29T14:14:43;27.00;83.90
23579;DHT22;11967;50.852;4.400;2022-07-29T14:17:11;27.00;83.20
23579;DHT22;11967;50.852;4.400;2022-07-29T14:19:39;27.10;82.60
23579;DHT22;11967;50.852;4.400;2022-07-29T14:22:08;27.20;82.70
23579;DHT22;11967;50.852;4.400;2022-07-29T14:24:35;27.10;82.30
23579;DHT22;11967;50.852;4.400;2022-07-29T14:27:01;27.10;82.60
23579;DHT22;11967;50.852;4.400;2022-07-29T14:29:28;27.00;81.90
23579;DHT22;11967;50.852;4.400;2022-07-29T14:31:54;27.00;82.90
23579;DHT22;11967;50.852;4.400;2022-07-29T14:34:31;27.00;83.50
23579;DHT22;11967;50.852;4.400;2022-07-29T14:37:17;27.10;82.70
23579;DHT22;11967;50.852;4.400;2022-07-29T14:39:45;27.30;82.20
23579;DHT22;11967;50.852;4.400;2022-07-29T14:42:38;27.20;81.70
23579;DHT22;11967;50.852;4.400;2022-07-29T14:45:06;27.20;81.50
23579;DHT22;11967;50.852;4.400;2022-07-29T14:47:32;27.20;81.80
23579;DHT22;11967;50.852;4.400;2022-07-29T14:49:58;27.20;81.60
23579;DHT22;11967;50.852;4.400;2022-07-29T14:52:24;27.20;82.20
23579;DHT22;11967;50.852;4.400;2022-07-29T14:54:49;27.20;82.50
23579;DHT22;11967;50.852;4.400;2022-07-29T14:57:15;27.10;82.70
23579;DHT22;11967;50.852;4.400;2022-07-29T14:59:41;27.10;82.90
23579;DHT22;11967;50.852;4.400;2022-07-29T15:02:08;27.10;82.60
23579;DHT22;11967;50.852;4.400;2022-07-29T15:04:33;27.10;82.90
23579;DHT22;11967;50.852;4.400;2022-07-29T15:07:00;27.20;83.20
23579;DHT22;11967;50.852;4.400;2022-07-29T15:09:25;27.20;82.90
23579;DHT22;11967;50.852;4.400;2022-07-29T15:11:51;27.10;82.50
23579;DHT22;11967;50.852;4.400;2022-07-29T15:14:17;27.00;83.20
23579;DHT22;11967;50.852;4.400;2022-07-29T15:16:43;27.10;83.30
23579;DHT22;11967;50.852;4.400;2022-07-29T15:19:09;27.00;83.40
23579;DHT22;11967;50.852;4.400;2022-07-29T15:21:35;27.00;83.20
23579;DHT22;11967;50.852;4.400;2022-07-29T15:24:01;27.10;83.30
23579;DHT22;11967;50.852;4.400;2022-07-29T15:26:26;27.10;83.10
23579;DHT22;11967;50.852;4.400;2022-07-29T15:28:52;27.10;83.10
23579;DHT22;11967;50.852;4.400;2022-07-29T15:31:19;27.20;82.80
23579;DHT22;11967;50.852;4.400;2022-07-29T15:33:44;27.30;82.50
23579;DHT22;11967;50.852;4.400;2022-07-29T15:36:10;27.30;82.30
23579;DHT22;11967;50.852;4.400;2022-07-29T15:38:38;27.30;82.40
23579;DHT22;11967;50.852;4.400;2022-07-29T15:41:06;27.30;82.50
23579;DHT22;11967;50.852;4.400;2022-07-29T15:43:32;27.30;81.90
23579;DHT22;11967;50.852;4.400;2022-07-29T15:46:03;27.40;81.80
23579;DHT22;11967;50.852;4.400;2022-07-29T15:48:50;27.40;81.40
23579;DHT22;11967;50.852;4.400;2022-07-29T15:51:15;27.40;81.80
23579;DHT22;11967;50.852;4.400;2022-07-29T15:53:41;27.40;80.50
23579;DHT22;11967;50.852;4.400;2022-07-29T15:56:08;27.30;78.30
23579;DHT22;11967;50.852;4.400;2022-07-29T15:58:36;27.10;77.90
23579;DHT22;11967;50.852;4.400;2022-07-29T16:01:02;27.00;79.80
23579;DHT22;11967;50.852;4.400;2022-07-29T16:03:28;27.00;79.80
23579;DHT22;11967;50.852;4.400;2022-07-29T16:05:54;27.10;80.50
23579;DHT22;11967;50.852;4.400;2022-07-29T16:08:19;27.00;80.60
23579;DHT22;11967;50.852;4.400;2022-07-29T16:10:45;27.00;81.10
23579;DHT22;11967;50.852;4.400;2022-07-29T16:13:10;27.10;81.20
23579;DHT22;11967;50.852;4.400;2022-07-29T16:15:36;27.00;80.60
23579;DHT22;11967;50.852;4.400;2022-07-29T16:18:03;27.00;81.00
23579;DHT22;11967;50.852;4.400;2022-07-29T16:23:49;27.00;79.40
23579;DHT22;11967;50.852;4.400;2022-07-29T16:26:14;27.10;79.10
23579;DHT22;11967;50.852;4.400;2022-07-29T16:28:40;27.10;79.40
23579;DHT22;11967;50.852;4.400;2022-07-29T16:31:06;27.10;80.40
23579;DHT22;11967;50.852;4.400;2022-07-29T16:33:32;27.10;81.00
23579;DHT22;11967;50.852;4.400;2022-07-29T16:35:58;27.10;81.50